createdAt,value
2023-10-29T00:00:30.737Z,9.91
2023-10-29T00:01:30.766Z,9.84
2023-10-29T00:02:30.896Z,9.79
2023-10-29T00:03:30.879Z,9.76
2023-10-29T00:04:30.879Z,9.73
2023-10-29T00:05:30.859Z,9.69
2023-10-29T00:06:30.820Z,9.66
2023-10-29T00:07:30.852Z,9.61
2023-10-29T00:08:30.907Z,9.56
2023-10-29T00:09:30.902Z,9.50
2023-10-29T00:10:30.895Z,9.47
2023-10-29T00:11:30.939Z,9.44
2023-10-29T00:12:30.932Z,9.37
2023-10-29T00:13:30.950Z,9.34
2023-10-29T00:14:32.219Z,9.32
2023-10-29T00:15:30.998Z,9.29
2023-10-29T00:16:30.988Z,9.26
2023-10-29T00:17:31.073Z,9.22
2023-10-29T00:18:31.061Z,9.22
2023-10-29T00:19:31.050Z,9.21
2023-10-29T00:20:31.137Z,9.14
2023-10-29T00:21:31.053Z,9.08
2023-10-29T00:22:31.061Z,9.08
2023-10-29T00:23:31.165Z,9.03
2023-10-29T00:24:31.100Z,9.04
2023-10-29T00:25:31.120Z,9.04
2023-10-29T00:26:31.182Z,9.04
2023-10-29T00:27:31.180Z,9.06
2023-10-29T00:28:31.173Z,9.04
2023-10-29T00:29:31.235Z,9.02
2023-10-29T00:30:31.212Z,9.00
2023-10-29T00:31:31.261Z,9.03
2023-10-29T00:32:31.312Z,8.97
2023-10-29T00:33:31.279Z,8.99
2023-10-29T00:34:31.280Z,8.97
2023-10-29T00:35:31.390Z,8.97
2023-10-29T00:36:31.305Z,9.02
2023-10-29T00:37:31.352Z,8.97
2023-10-29T00:38:31.373Z,8.95
2023-10-29T00:39:31.371Z,8.94
2023-10-29T00:40:31.386Z,8.95
2023-10-29T00:41:31.450Z,8.94
2023-10-29T00:42:31.440Z,8.92
2023-10-29T00:43:31.446Z,8.91
2023-10-29T00:44:31.481Z,8.91
2023-10-29T00:45:31.602Z,8.91
2023-10-29T00:46:31.500Z,8.88
2023-10-29T00:47:31.545Z,8.88
2023-10-29T00:48:31.520Z,8.89
2023-10-29T00:49:31.531Z,8.89
2023-10-29T00:50:31.591Z,8.89
2023-10-29T00:51:31.586Z,8.89
2023-10-29T00:52:31.569Z,8.91
2023-10-29T00:53:31.625Z,8.92
2023-10-29T00:54:31.640Z,8.95
2023-10-29T00:55:31.656Z,8.95
2023-10-29T00:56:31.723Z,8.99
2023-10-29T00:57:31.672Z,8.99
2023-10-29T00:58:31.688Z,9.02
2023-10-29T00:59:31.754Z,9.03
2023-10-29T01:00:31.735Z,9.02
2023-10-29T01:01:31.768Z,9.04
2023-10-29T01:02:31.847Z,9.06
2023-10-29T01:03:31.977Z,9.08
2023-10-29T01:04:31.779Z,9.10
2023-10-29T01:05:31.940Z,9.10
2023-10-29T01:06:31.869Z,9.13
2023-10-29T01:07:31.843Z,9.16
2023-10-29T01:08:31.912Z,9.18
2023-10-29T01:09:31.912Z,9.19
2023-10-29T01:10:31.901Z,9.19
2023-10-29T01:11:31.924Z,9.22
2023-10-29T01:12:31.925Z,9.23
2023-10-29T01:13:31.943Z,9.23
2023-10-29T01:14:31.992Z,9.25
2023-10-29T01:15:32.059Z,9.26
2023-10-29T01:16:31.985Z,9.26
2023-10-29T01:17:32.057Z,9.28
2023-10-29T01:18:32.072Z,9.32
2023-10-29T01:19:32.069Z,9.32
2023-10-29T01:20:32.096Z,9.34
2023-10-29T01:21:32.098Z,9.34
2023-10-29T01:22:32.105Z,9.36
2023-10-29T01:23:32.162Z,9.36
2023-10-29T01:24:32.174Z,9.36
2023-10-29T01:25:32.169Z,9.34
2023-10-29T01:26:32.227Z,9.34
2023-10-29T01:27:32.214Z,9.31
2023-10-29T01:28:32.288Z,9.28
2023-10-29T01:29:32.254Z,9.28
2023-10-29T01:30:32.261Z,9.25
2023-10-29T01:31:32.336Z,9.19
2023-10-29T01:32:32.368Z,9.14
2023-10-29T01:33:32.363Z,9.06
2023-10-29T01:34:32.342Z,9.04
2023-10-29T01:35:32.400Z,9.03
2023-10-29T01:36:32.406Z,9.03
2023-10-29T01:37:32.401Z,9.03
2023-10-29T01:38:32.452Z,9.00
2023-10-29T01:39:32.438Z,9.00
2023-10-29T01:40:32.436Z,8.97
2023-10-29T01:41:32.475Z,8.97
2023-10-29T01:42:32.481Z,8.95
2023-10-29T01:43:32.492Z,8.92
2023-10-29T01:44:32.530Z,8.89
2023-10-29T01:45:32.552Z,8.88
2023-10-29T01:46:32.541Z,8.82
2023-10-29T01:47:32.638Z,8.76
2023-10-29T01:48:32.648Z,8.78
2023-10-29T01:49:32.584Z,8.76
2023-10-29T01:50:32.635Z,8.76
2023-10-29T01:51:32.635Z,8.76
2023-10-29T01:52:32.640Z,8.76
2023-10-29T01:53:32.683Z,8.74
2023-10-29T01:54:32.663Z,8.71
2023-10-29T01:55:32.693Z,8.73
2023-10-29T01:56:32.752Z,8.70
2023-10-29T01:57:32.725Z,8.67
2023-10-29T01:58:32.748Z,8.66
2023-10-29T01:59:32.826Z,8.64
2023-10-29T02:00:32.778Z,8.58
2023-10-29T02:01:32.908Z,8.56
2023-10-29T02:02:32.853Z,8.55
2023-10-29T02:03:32.923Z,8.60
2023-10-29T02:04:32.850Z,8.60
2023-10-29T02:05:32.947Z,8.60
2023-10-29T02:06:32.908Z,8.60
2023-10-29T02:07:32.912Z,8.60
2023-10-29T02:08:33.043Z,8.63
2023-10-29T02:09:32.938Z,8.64
2023-10-29T02:10:32.976Z,8.60
2023-10-29T02:11:32.993Z,8.63
2023-10-29T02:12:32.994Z,8.63
2023-10-29T02:13:33.022Z,8.66
2023-10-29T02:14:33.104Z,8.67
2023-10-29T02:15:33.081Z,8.66
2023-10-29T02:16:33.066Z,8.66
2023-10-29T02:17:33.149Z,8.66
2023-10-29T02:18:33.117Z,8.67
2023-10-29T02:19:33.137Z,8.67
2023-10-29T02:20:33.175Z,8.66
2023-10-29T02:21:33.162Z,8.69
2023-10-29T02:22:33.190Z,8.67
2023-10-29T02:23:33.217Z,8.61
2023-10-29T02:24:33.215Z,8.58
2023-10-29T02:25:33.232Z,8.60
2023-10-29T02:26:33.281Z,8.53
2023-10-29T02:27:33.267Z,8.51
2023-10-29T02:28:33.280Z,8.48
2023-10-29T02:29:33.368Z,8.48
2023-10-29T02:30:33.317Z,8.46
2023-10-29T02:31:33.425Z,8.42
2023-10-29T02:32:33.402Z,8.38
2023-10-29T02:33:33.482Z,8.38
2023-10-29T02:34:33.403Z,8.37
2023-10-29T02:35:33.435Z,8.36
2023-10-29T02:36:33.416Z,8.37
2023-10-29T02:37:33.445Z,8.34
2023-10-29T02:38:33.495Z,8.31
2023-10-29T02:39:33.487Z,8.26
2023-10-29T02:40:33.487Z,8.19
2023-10-29T02:41:33.536Z,8.18
2023-10-29T02:42:33.519Z,8.16
2023-10-29T02:43:33.560Z,8.16
2023-10-29T02:44:33.586Z,8.16
2023-10-29T02:45:33.581Z,8.15
2023-10-29T02:46:33.582Z,8.12
2023-10-29T02:47:33.708Z,8.13
2023-10-29T02:48:33.749Z,8.12
2023-10-29T02:49:33.642Z,8.12
2023-10-29T02:50:33.720Z,8.13
2023-10-29T02:51:33.683Z,8.13
2023-10-29T02:52:33.722Z,8.10
2023-10-29T02:53:33.734Z,8.10
2023-10-29T02:54:33.743Z,8.10
2023-10-29T02:55:33.749Z,8.09
2023-10-29T02:56:33.766Z,8.08
2023-10-29T02:57:33.799Z,8.09
2023-10-29T02:58:33.795Z,8.08
2023-10-29T02:59:33.831Z,8.06
2023-10-29T03:00:33.827Z,8.05
2023-10-29T03:01:33.954Z,8.00
2023-10-29T03:02:34.010Z,7.98
2023-10-29T03:03:33.991Z,7.94
2023-10-29T03:04:33.932Z,7.95
2023-10-29T03:05:43.042Z,7.95
2023-10-29T03:06:33.955Z,7.97
2023-10-29T03:07:33.947Z,7.95
2023-10-29T03:08:33.996Z,7.88
2023-10-29T03:09:33.978Z,7.79
2023-10-29T03:10:34.020Z,7.77
2023-10-29T03:11:34.050Z,7.77
2023-10-29T03:12:34.015Z,7.77
2023-10-29T03:13:34.035Z,7.77
2023-10-29T03:14:34.086Z,7.76
2023-10-29T03:15:34.091Z,7.73
2023-10-29T03:16:34.076Z,7.72
2023-10-29T03:17:34.183Z,7.72
2023-10-29T03:18:34.170Z,7.72
2023-10-29T03:19:34.127Z,7.72
2023-10-29T03:20:34.187Z,7.70
2023-10-29T03:21:34.163Z,7.66
2023-10-29T03:22:34.273Z,7.61
2023-10-29T03:23:34.219Z,7.60
2023-10-29T03:24:34.229Z,7.60
2023-10-29T03:25:34.241Z,7.56
2023-10-29T03:26:34.272Z,7.51
2023-10-29T03:27:34.262Z,7.48
2023-10-29T03:28:34.272Z,7.45
2023-10-29T03:29:34.343Z,7.48
2023-10-29T03:30:34.312Z,7.48
2023-10-29T03:31:34.372Z,7.48
2023-10-29T03:32:34.451Z,7.51
2023-10-29T03:33:34.427Z,7.50
2023-10-29T03:34:34.397Z,7.50
2023-10-29T03:35:34.416Z,7.43
2023-10-29T03:36:34.421Z,7.36
2023-10-29T03:37:34.436Z,7.36
2023-10-29T03:38:34.464Z,7.36
2023-10-29T03:39:34.488Z,7.35
2023-10-29T03:40:34.478Z,7.33
2023-10-29T03:41:34.521Z,7.29
2023-10-29T03:42:34.505Z,7.20
2023-10-29T03:43:34.552Z,7.15
2023-10-29T03:44:34.561Z,7.15
2023-10-29T03:45:34.618Z,7.17
2023-10-29T03:46:34.579Z,7.17
2023-10-29T03:47:34.721Z,7.14
2023-10-29T03:48:34.714Z,7.13
2023-10-29T03:49:34.617Z,7.06
2023-10-29T03:50:34.633Z,7.05
2023-10-29T03:51:34.645Z,7.02
2023-10-29T03:52:34.689Z,7.00
2023-10-29T03:53:34.695Z,7.02
2023-10-29T03:54:34.711Z,7.00
2023-10-29T03:55:34.711Z,6.99
2023-10-29T03:56:34.757Z,6.99
2023-10-29T03:57:34.764Z,6.99
2023-10-29T03:58:34.761Z,6.89
2023-10-29T03:59:34.811Z,6.87
2023-10-29T04:00:34.799Z,6.82
2023-10-29T04:01:34.846Z,6.81
2023-10-29T04:02:34.940Z,6.81
2023-10-29T04:03:34.948Z,6.79
2023-10-29T04:04:34.877Z,6.78
2023-10-29T04:05:34.976Z,6.74
2023-10-29T04:06:34.945Z,6.69
2023-10-29T04:07:34.947Z,6.69
2023-10-29T04:08:34.983Z,6.72
2023-10-29T04:09:34.974Z,6.72
2023-10-29T04:10:34.984Z,6.74
2023-10-29T04:11:35.112Z,6.74
2023-10-29T04:12:35.022Z,6.75
2023-10-29T04:13:35.036Z,6.75
2023-10-29T04:14:35.074Z,6.69
2023-10-29T04:15:35.067Z,6.69
2023-10-29T04:16:35.194Z,6.63
2023-10-29T04:17:35.191Z,6.60
2023-10-29T04:18:35.346Z,6.54
2023-10-29T04:19:35.138Z,6.52
2023-10-29T04:20:35.208Z,6.52
2023-10-29T04:21:35.173Z,6.52
2023-10-29T04:22:35.197Z,6.56
2023-10-29T04:23:35.222Z,6.63
2023-10-29T04:24:35.220Z,6.66
2023-10-29T04:25:35.253Z,6.67
2023-10-29T04:26:35.306Z,6.59
2023-10-29T04:27:35.270Z,6.49
2023-10-29T04:28:35.292Z,6.46
2023-10-29T04:29:35.321Z,6.48
2023-10-29T04:30:35.392Z,6.48
2023-10-29T04:31:35.338Z,6.48
2023-10-29T04:32:35.428Z,6.48
2023-10-29T04:33:35.446Z,6.48
2023-10-29T04:34:35.423Z,6.51
2023-10-29T04:35:35.459Z,6.52
2023-10-29T04:36:35.430Z,6.49
2023-10-29T04:37:35.440Z,6.44
2023-10-29T04:38:35.495Z,6.36
2023-10-29T04:39:35.492Z,6.26
2023-10-29T04:40:35.495Z,6.26
2023-10-29T04:41:35.570Z,6.26
2023-10-29T04:42:35.530Z,6.24
2023-10-29T04:43:35.543Z,6.27
2023-10-29T04:44:35.595Z,6.36
2023-10-29T04:45:35.568Z,6.39
2023-10-29T04:46:35.591Z,6.41
2023-10-29T04:47:35.641Z,6.41
2023-10-29T04:48:35.715Z,6.42
2023-10-29T04:49:35.665Z,6.33
2023-10-29T04:50:35.690Z,6.27
2023-10-29T04:51:35.674Z,6.28
2023-10-29T04:52:35.704Z,6.30
2023-10-29T04:53:36.118Z,6.31
2023-10-29T04:54:35.737Z,6.28
2023-10-29T04:55:35.755Z,6.30
2023-10-29T04:56:35.805Z,6.33
2023-10-29T04:57:35.789Z,6.28
2023-10-29T04:58:35.827Z,6.27
2023-10-29T04:59:35.861Z,6.26
2023-10-29T05:00:35.834Z,6.24
2023-10-29T05:01:35.910Z,6.24
2023-10-29T05:02:35.978Z,6.24
2023-10-29T05:03:36.010Z,6.19
2023-10-29T05:04:35.912Z,6.17
2023-10-29T05:05:35.936Z,6.19
2023-10-29T05:06:35.935Z,6.12
2023-10-29T05:07:35.965Z,6.07
2023-10-29T05:08:35.993Z,6.07
2023-10-29T05:09:35.978Z,6.08
2023-10-29T05:10:36.003Z,6.08
2023-10-29T05:11:36.066Z,5.99
2023-10-29T05:12:36.058Z,5.98
2023-10-29T05:13:36.047Z,5.98
2023-10-29T05:14:36.076Z,6.01
2023-10-29T05:15:36.069Z,6.02
2023-10-29T05:16:36.158Z,6.02
2023-10-29T05:17:36.176Z,6.05
2023-10-29T05:18:36.167Z,6.11
2023-10-29T05:19:36.138Z,6.12
2023-10-29T05:20:36.184Z,6.09
2023-10-29T05:21:36.215Z,6.07
2023-10-29T05:22:36.212Z,6.05
2023-10-29T05:23:36.309Z,6.05
2023-10-29T05:24:36.220Z,6.11
2023-10-29T05:25:36.231Z,6.22
2023-10-29T05:26:36.323Z,6.20
2023-10-29T05:27:36.266Z,6.22
2023-10-29T05:28:36.276Z,6.20
2023-10-29T05:29:36.303Z,6.12
2023-10-29T05:30:36.384Z,6.04
2023-10-29T05:31:36.358Z,5.98
2023-10-29T05:32:36.406Z,5.90
2023-10-29T05:33:36.398Z,5.87
2023-10-29T05:34:36.385Z,5.84
2023-10-29T05:35:36.455Z,5.79
2023-10-29T05:36:36.428Z,5.75
2023-10-29T05:37:36.430Z,5.75
2023-10-29T05:38:36.500Z,5.73
2023-10-29T05:39:36.465Z,5.73
2023-10-29T05:40:36.485Z,5.75
2023-10-29T05:41:36.530Z,5.72
2023-10-29T05:42:36.515Z,5.71
2023-10-29T05:43:36.528Z,5.71
2023-10-29T05:44:36.603Z,5.72
2023-10-29T05:45:36.565Z,5.72
2023-10-29T05:46:36.619Z,5.71
2023-10-29T05:47:36.630Z,5.69
2023-10-29T05:48:36.650Z,5.68
2023-10-29T05:49:36.659Z,5.65
2023-10-29T05:50:36.668Z,5.59
2023-10-29T05:51:36.660Z,5.59
2023-10-29T05:52:36.682Z,5.57
2023-10-29T05:53:36.703Z,5.54
2023-10-29T05:54:36.742Z,5.51
2023-10-29T05:55:36.771Z,5.47
2023-10-29T05:56:36.799Z,5.44
2023-10-29T05:57:36.762Z,5.46
2023-10-29T05:58:36.812Z,5.48
2023-10-29T05:59:36.854Z,5.62
2023-10-29T06:00:36.859Z,5.73
2023-10-29T06:01:36.840Z,5.82
2023-10-29T06:02:36.917Z,5.87
2023-10-29T06:03:37.067Z,5.86
2023-10-29T06:04:36.969Z,5.87
2023-10-29T06:05:36.965Z,5.93
2023-10-29T06:06:36.934Z,5.98
2023-10-29T06:07:36.951Z,5.98
2023-10-29T06:08:37.046Z,5.94
2023-10-29T06:09:37.010Z,5.94
2023-10-29T06:10:37.007Z,5.98
2023-10-29T06:11:37.080Z,5.97
2023-10-29T06:12:37.040Z,5.93
2023-10-29T06:13:37.076Z,5.97
2023-10-29T06:14:37.113Z,5.94
2023-10-29T06:15:37.094Z,5.94
2023-10-29T06:16:37.151Z,5.91
2023-10-29T06:17:37.292Z,5.89
2023-10-29T06:18:37.251Z,5.90
2023-10-29T06:19:37.180Z,5.93
2023-10-29T06:20:37.218Z,5.97
2023-10-29T06:21:37.209Z,5.94
2023-10-29T06:22:37.221Z,5.97
2023-10-29T06:23:38.564Z,5.94
2023-10-29T06:24:37.262Z,5.91
2023-10-29T06:25:37.263Z,5.90
2023-10-29T06:26:37.339Z,5.86
2023-10-29T06:27:37.286Z,5.82
2023-10-29T06:28:37.311Z,5.80
2023-10-29T06:29:37.407Z,5.80
2023-10-29T06:30:37.341Z,5.83
2023-10-29T06:31:37.378Z,5.89
2023-10-29T06:32:37.425Z,5.94
2023-10-29T06:33:37.446Z,6.02
2023-10-29T06:34:37.417Z,6.07
2023-10-29T06:35:37.436Z,6.09
2023-10-29T06:36:37.470Z,6.11
2023-10-29T06:37:37.466Z,6.12
2023-10-29T06:38:37.534Z,6.12
2023-10-29T06:39:37.510Z,6.12
2023-10-29T06:40:37.557Z,6.14
2023-10-29T06:41:37.596Z,6.11
2023-10-29T06:42:37.582Z,6.11
2023-10-29T06:43:37.585Z,6.08
2023-10-29T06:44:37.681Z,6.09
2023-10-29T06:45:37.636Z,6.07
2023-10-29T06:46:37.677Z,6.07
2023-10-29T06:47:37.741Z,6.07
2023-10-29T06:48:37.758Z,6.09
2023-10-29T06:49:37.700Z,6.09
2023-10-29T06:50:37.774Z,6.11
2023-10-29T06:51:37.730Z,6.12
2023-10-29T06:52:37.758Z,6.14
2023-10-29T06:53:37.768Z,6.16
2023-10-29T06:54:37.783Z,6.14
2023-10-29T06:55:37.807Z,6.12
2023-10-29T06:56:37.861Z,6.11
2023-10-29T06:57:37.824Z,6.12
2023-10-29T06:58:37.840Z,6.16
2023-10-29T06:59:37.871Z,6.16
2023-10-29T07:00:37.880Z,6.17
2023-10-29T07:01:37.882Z,6.22
2023-10-29T07:02:38.048Z,6.26
2023-10-29T07:03:38.043Z,6.27
2023-10-29T07:04:37.982Z,6.24
2023-10-29T07:05:37.967Z,6.24
2023-10-29T07:06:38.574Z,6.19
2023-10-29T07:07:37.994Z,6.20
2023-10-29T07:08:38.070Z,6.26
2023-10-29T07:09:38.040Z,6.31
2023-10-29T07:10:38.053Z,6.36
2023-10-29T07:11:38.114Z,6.38
2023-10-29T07:12:40.395Z,6.38
2023-10-29T07:13:38.121Z,6.42
2023-10-29T07:14:38.176Z,6.45
2023-10-29T07:15:38.144Z,6.45
2023-10-29T07:16:38.143Z,6.48
2023-10-29T07:17:38.199Z,6.51
2023-10-29T07:18:38.343Z,6.54
2023-10-29T07:19:38.191Z,6.51
2023-10-29T07:20:38.229Z,6.49
2023-10-29T07:21:38.213Z,6.49
2023-10-29T07:22:38.268Z,6.51
2023-10-29T07:23:38.359Z,6.52
2023-10-29T07:24:38.277Z,6.52
2023-10-29T07:25:38.295Z,6.54
2023-10-29T07:26:38.343Z,6.60
2023-10-29T07:27:38.352Z,6.66
2023-10-29T07:28:38.351Z,6.70
2023-10-29T07:29:38.427Z,6.75
2023-10-29T07:30:38.380Z,6.78
2023-10-29T07:31:38.431Z,6.81
2023-10-29T07:32:38.502Z,6.85
2023-10-29T07:33:38.500Z,6.92
2023-10-29T07:34:38.457Z,6.93
2023-10-29T07:35:38.490Z,6.92
2023-10-29T07:36:38.514Z,6.89
2023-10-29T07:37:38.508Z,6.93
2023-10-29T07:38:38.567Z,6.95
2023-10-29T07:39:38.531Z,6.96
2023-10-29T07:40:38.547Z,7.00
2023-10-29T07:41:38.650Z,7.00
2023-10-29T07:42:38.582Z,7.03
2023-10-29T07:43:38.603Z,7.10
2023-10-29T07:44:38.653Z,7.14
2023-10-29T07:45:38.705Z,7.15
2023-10-29T07:46:38.651Z,7.18
2023-10-29T07:47:38.762Z,7.24
2023-10-29T07:48:38.714Z,7.29
2023-10-29T07:49:38.729Z,7.33
2023-10-29T07:50:38.785Z,7.38
2023-10-29T07:51:38.744Z,7.36
2023-10-29T07:52:38.753Z,7.38
2023-10-29T07:53:38.873Z,7.42
2023-10-29T07:54:38.789Z,7.43
2023-10-29T07:55:38.815Z,7.47
2023-10-29T07:56:38.882Z,7.51
2023-10-29T07:57:38.837Z,7.56
2023-10-29T07:58:38.846Z,7.57
2023-10-29T07:59:38.896Z,7.60
2023-10-29T08:00:38.912Z,7.61
2023-10-29T08:01:38.889Z,7.63
2023-10-29T08:02:38.986Z,7.67
2023-10-29T08:03:39.021Z,7.73
2023-10-29T08:04:38.952Z,7.77
2023-10-29T08:05:39.007Z,7.80
2023-10-29T08:06:38.984Z,7.85
2023-10-29T08:07:38.986Z,7.88
2023-10-29T08:08:39.031Z,7.91
2023-10-29T08:09:39.035Z,8.00
2023-10-29T08:10:39.038Z,8.05
2023-10-29T08:11:39.086Z,8.10
2023-10-29T08:12:39.074Z,8.16
2023-10-29T08:13:39.089Z,8.18
2023-10-29T08:14:39.135Z,8.20
2023-10-29T08:15:40.445Z,8.30
2023-10-29T08:16:39.155Z,8.33
2023-10-29T08:17:39.180Z,8.37
2023-10-29T08:18:39.285Z,8.42
2023-10-29T08:19:39.201Z,8.46
2023-10-29T08:20:39.229Z,8.51
2023-10-29T08:21:39.250Z,8.55
2023-10-29T08:22:39.287Z,8.60
2023-10-29T08:23:39.320Z,8.63
2023-10-29T08:24:39.290Z,8.69
2023-10-29T08:25:39.309Z,8.74
2023-10-29T08:26:39.350Z,8.85
2023-10-29T08:27:39.355Z,8.99
2023-10-29T08:28:39.378Z,9.06
2023-10-29T08:29:39.536Z,9.16
2023-10-29T08:30:39.398Z,9.28
2023-10-29T08:31:39.478Z,9.37
2023-10-29T08:32:39.516Z,9.48
2023-10-29T08:33:39.607Z,9.65
2023-10-29T08:34:39.469Z,9.80
2023-10-29T08:35:39.500Z,9.98
2023-10-29T08:36:39.492Z,10.22
2023-10-29T08:37:39.534Z,10.40
2023-10-29T08:38:39.576Z,10.53
2023-10-29T08:39:39.547Z,10.64
2023-10-29T08:40:39.555Z,10.76
2023-10-29T08:41:39.611Z,10.84
2023-10-29T08:42:39.610Z,10.92
2023-10-29T08:43:39.610Z,10.94
2023-10-29T08:44:39.677Z,10.97
2023-10-29T08:45:42.502Z,11.00
2023-10-29T08:46:39.721Z,11.04
2023-10-29T08:47:39.769Z,11.08
2023-10-29T08:48:39.747Z,11.10
2023-10-29T08:49:39.702Z,11.14
2023-10-29T08:50:39.762Z,11.22
2023-10-29T08:51:39.767Z,11.26
2023-10-29T08:52:39.729Z,11.30
2023-10-29T08:53:39.777Z,11.37
2023-10-29T08:54:39.767Z,11.44
2023-10-29T08:55:39.823Z,11.48
2023-10-29T08:56:39.847Z,11.50
2023-10-29T08:57:39.813Z,11.51
2023-10-29T08:58:39.821Z,11.52
2023-10-29T08:59:39.857Z,11.54
2023-10-29T09:00:46.539Z,11.60
2023-10-29T09:01:39.933Z,11.73
2023-10-29T09:02:40.088Z,11.83
2023-10-29T09:03:40.037Z,11.87
2023-10-29T09:04:39.926Z,11.87
2023-10-29T09:05:40.083Z,11.87
2023-10-29T09:06:40.030Z,11.87
2023-10-29T09:07:39.957Z,11.91
2023-10-29T09:08:39.983Z,11.99
2023-10-29T09:09:40.020Z,12.09
2023-10-29T09:10:40.051Z,12.12
2023-10-29T09:11:40.048Z,12.20
2023-10-29T09:12:40.058Z,12.22
2023-10-29T09:13:40.061Z,12.24
2023-10-29T09:14:40.121Z,12.29
2023-10-29T09:15:40.096Z,12.43
2023-10-29T09:16:40.113Z,12.62
2023-10-29T09:17:40.211Z,12.72
2023-10-29T09:18:40.147Z,12.78
2023-10-29T09:19:40.164Z,12.82
2023-10-29T09:20:40.239Z,12.83
2023-10-29T09:21:40.176Z,12.85
2023-10-29T09:22:40.183Z,12.82
2023-10-29T09:23:40.301Z,12.83
2023-10-29T09:24:40.236Z,12.85
2023-10-29T09:25:40.234Z,12.86
2023-10-29T09:26:40.245Z,12.87
2023-10-29T09:27:40.265Z,12.93
2023-10-29T09:28:40.301Z,12.95
2023-10-29T09:29:40.356Z,12.94
2023-10-29T09:30:40.310Z,12.94
2023-10-29T09:31:40.382Z,12.94
2023-10-29T09:32:40.375Z,12.94
2023-10-29T09:33:40.538Z,12.98
2023-10-29T09:34:40.370Z,12.97
2023-10-29T09:35:40.429Z,12.98
2023-10-29T09:36:40.393Z,13.01
2023-10-29T09:37:40.417Z,13.04
2023-10-29T09:38:40.459Z,13.05
2023-10-29T09:39:40.452Z,13.09
2023-10-29T09:40:46.472Z,13.09
2023-10-29T09:41:40.491Z,13.09
2023-10-29T09:42:40.505Z,13.15
2023-10-29T09:43:40.519Z,13.20
2023-10-29T09:44:40.572Z,13.20
2023-10-29T09:45:40.571Z,13.23
2023-10-29T09:46:40.555Z,13.23
2023-10-29T09:47:40.680Z,13.23
2023-10-29T09:48:40.679Z,13.27
2023-10-29T09:49:40.611Z,13.30
2023-10-29T09:50:40.633Z,13.35
2023-10-29T09:51:40.641Z,13.39
2023-10-29T09:52:40.666Z,13.42
2023-10-29T09:53:40.691Z,13.42
2023-10-29T09:54:40.689Z,13.42
2023-10-29T09:55:40.702Z,13.42
2023-10-29T09:56:40.791Z,13.41
2023-10-29T09:57:40.752Z,13.44
2023-10-29T09:58:40.751Z,13.46
2023-10-29T09:59:40.787Z,13.49
2023-10-29T10:00:40.791Z,13.49
2023-10-29T10:01:55.410Z,13.52
2023-10-29T10:02:40.862Z,13.52
2023-10-29T10:03:41.010Z,13.56
2023-10-29T10:04:40.830Z,13.60
2023-10-29T10:05:40.865Z,13.65
2023-10-29T10:06:40.878Z,13.63
2023-10-29T10:07:40.880Z,13.62
2023-10-29T10:08:40.915Z,13.65
2023-10-29T10:09:40.908Z,13.67
2023-10-29T10:10:40.937Z,13.71
2023-10-29T10:11:40.963Z,13.70
2023-10-29T10:12:40.942Z,13.70
2023-10-29T10:13:40.964Z,13.72
2023-10-29T10:14:40.992Z,13.75
2023-10-29T10:15:41.017Z,13.78
2023-10-29T10:16:40.995Z,13.79
2023-10-29T10:17:41.070Z,13.83
2023-10-29T10:18:41.040Z,13.87
2023-10-29T10:19:41.048Z,13.89
2023-10-29T10:20:41.094Z,13.93
2023-10-29T10:21:41.090Z,13.97
2023-10-29T10:22:41.087Z,14.04
2023-10-29T10:23:41.135Z,14.07
2023-10-29T10:24:41.214Z,14.07
2023-10-29T10:25:41.187Z,14.08
2023-10-29T10:26:41.181Z,14.11
2023-10-29T10:27:41.172Z,14.22
2023-10-29T10:28:41.180Z,14.23
2023-10-29T10:29:41.281Z,14.25
2023-10-29T10:30:41.218Z,14.26
2023-10-29T10:31:41.305Z,14.28
2023-10-29T10:32:41.345Z,14.29
2023-10-29T10:33:41.288Z,14.35
2023-10-29T10:34:41.286Z,14.41
2023-10-29T10:35:41.313Z,14.43
2023-10-29T10:36:41.317Z,14.44
2023-10-29T10:37:41.328Z,14.47
2023-10-29T10:38:41.373Z,14.53
2023-10-29T10:39:41.352Z,14.58
2023-10-29T10:40:41.361Z,14.59
2023-10-29T10:41:41.410Z,14.60
2023-10-29T10:42:41.396Z,14.62
2023-10-29T10:43:41.438Z,14.65
2023-10-29T10:44:41.450Z,14.68
2023-10-29T10:45:41.490Z,14.69
2023-10-29T10:46:41.459Z,14.79
2023-10-29T10:47:41.527Z,14.85
2023-10-29T10:48:41.536Z,14.86
2023-10-29T10:49:41.538Z,14.91
2023-10-29T10:50:41.548Z,14.94
2023-10-29T10:51:41.548Z,14.96
2023-10-29T10:52:41.572Z,14.97
2023-10-29T10:53:42.558Z,14.97
2023-10-29T10:54:41.596Z,14.97
2023-10-29T10:55:55.452Z,14.99
2023-10-29T10:56:41.653Z,14.97
2023-10-29T10:57:41.651Z,15.02
2023-10-29T10:58:41.660Z,15.02
2023-10-29T10:59:41.680Z,15.02
2023-10-29T11:00:41.684Z,15.04
2023-10-29T11:01:41.708Z,15.06
2023-10-29T11:02:41.790Z,15.07
2023-10-29T11:03:41.837Z,15.07
2023-10-29T11:04:41.926Z,15.06
2023-10-29T11:05:41.810Z,15.04
2023-10-29T11:06:41.758Z,15.06
2023-10-29T11:07:41.797Z,15.07
2023-10-29T11:08:41.803Z,15.09
2023-10-29T11:09:41.807Z,15.10
2023-10-29T11:10:41.829Z,15.15
2023-10-29T11:11:41.893Z,15.11
2023-10-29T11:12:41.855Z,15.10
2023-10-29T11:13:41.863Z,15.09
2023-10-29T11:14:41.907Z,15.10
2023-10-29T11:15:41.893Z,15.09
2023-10-29T11:16:42.012Z,15.10
2023-10-29T11:17:42.086Z,15.10
2023-10-29T11:18:41.961Z,15.10
2023-10-29T11:19:41.948Z,15.14
2023-10-29T11:20:41.969Z,15.15
2023-10-29T11:21:41.993Z,15.15
2023-10-29T11:22:41.988Z,15.15
2023-10-29T11:23:42.060Z,15.17
2023-10-29T11:24:42.024Z,15.18
2023-10-29T11:25:42.062Z,15.18
2023-10-29T11:26:42.075Z,15.18
2023-10-29T11:27:42.116Z,15.21
2023-10-29T11:28:42.075Z,15.18
2023-10-29T11:29:42.115Z,15.18
2023-10-29T11:30:42.128Z,15.18
2023-10-29T11:31:42.163Z,15.18
2023-10-29T11:32:42.201Z,15.18
2023-10-29T11:33:42.190Z,15.18
2023-10-29T11:34:42.172Z,15.19
2023-10-29T11:35:42.241Z,15.17
2023-10-29T11:36:42.209Z,15.17
2023-10-29T11:37:42.256Z,15.18
2023-10-29T11:38:42.261Z,15.19
2023-10-29T11:39:42.307Z,15.22
2023-10-29T11:40:42.299Z,15.24
2023-10-29T11:41:44.711Z,15.28
2023-10-29T11:42:42.309Z,15.31
2023-10-29T11:43:42.330Z,15.29
2023-10-29T11:44:42.369Z,15.28
2023-10-29T11:45:42.462Z,15.27
2023-10-29T11:46:42.365Z,15.27
2023-10-29T11:47:42.448Z,15.27
2023-10-29T11:48:42.463Z,15.29
2023-10-29T11:49:42.434Z,15.35
2023-10-29T11:50:42.497Z,15.37
2023-10-29T11:51:42.453Z,15.37
2023-10-29T11:52:42.460Z,15.36
2023-10-29T11:53:42.541Z,15.37
2023-10-29T11:54:42.509Z,15.43
2023-10-29T11:55:42.512Z,15.44
2023-10-29T11:56:42.531Z,15.47
2023-10-29T11:57:42.542Z,15.47
2023-10-29T11:58:42.573Z,15.51
2023-10-29T11:59:42.602Z,15.51
2023-10-29T12:00:42.599Z,15.51
2023-10-29T12:01:42.591Z,15.51
2023-10-29T12:02:42.676Z,15.51
2023-10-29T12:03:42.819Z,15.49
2023-10-29T12:04:42.691Z,15.49
2023-10-29T12:05:42.677Z,15.46
2023-10-29T12:06:42.658Z,15.46
2023-10-29T12:07:42.698Z,15.44
2023-10-29T12:08:42.727Z,15.43
2023-10-29T12:09:42.710Z,15.42
2023-10-29T12:10:42.731Z,15.37
2023-10-29T12:11:42.773Z,15.35
2023-10-29T12:12:42.862Z,15.37
2023-10-29T12:13:42.823Z,15.39
2023-10-29T12:14:42.923Z,15.42
2023-10-29T12:15:42.806Z,15.46
2023-10-29T12:16:42.911Z,15.54
2023-10-29T12:17:42.900Z,15.59
2023-10-29T12:18:42.912Z,15.64
2023-10-29T12:19:42.885Z,15.65
2023-10-29T12:20:42.908Z,15.70
2023-10-29T12:21:42.911Z,15.82
2023-10-29T12:22:42.918Z,15.94
2023-10-29T12:23:42.940Z,16.05
2023-10-29T12:24:42.924Z,16.12
2023-10-29T12:25:42.947Z,16.17
2023-10-29T12:26:42.993Z,16.21
2023-10-29T12:27:42.994Z,16.29
2023-10-29T12:28:42.988Z,16.35
2023-10-29T12:29:43.028Z,16.39
2023-10-29T12:30:43.102Z,16.42
2023-10-29T12:31:43.050Z,16.43
2023-10-29T12:32:43.105Z,16.50
2023-10-29T12:33:43.099Z,16.51
2023-10-29T12:34:43.084Z,16.53
2023-10-29T12:35:43.120Z,16.53
2023-10-29T12:36:43.115Z,16.49
2023-10-29T12:37:43.119Z,16.46
2023-10-29T12:38:43.161Z,16.43
2023-10-29T12:39:43.151Z,16.43
2023-10-29T12:40:43.192Z,16.43
2023-10-29T12:41:43.202Z,16.47
2023-10-29T12:42:43.200Z,16.43
2023-10-29T12:43:43.210Z,16.36
2023-10-29T12:44:43.253Z,16.42
2023-10-29T12:45:43.265Z,16.43
2023-10-29T12:46:43.274Z,16.41
2023-10-29T12:47:43.330Z,16.35
2023-10-29T12:48:43.294Z,16.33
2023-10-29T12:49:43.292Z,16.31
2023-10-29T12:50:43.368Z,16.21
2023-10-29T12:51:43.334Z,16.17
2023-10-29T12:52:43.346Z,16.15
2023-10-29T12:53:43.376Z,16.10
2023-10-29T12:54:43.388Z,16.02
2023-10-29T12:55:43.407Z,15.97
2023-10-29T12:56:43.420Z,15.91
2023-10-29T12:57:43.437Z,15.91
2023-10-29T12:58:43.433Z,15.86
2023-10-29T12:59:43.551Z,15.88
2023-10-29T13:00:43.476Z,15.84
2023-10-29T13:01:43.482Z,15.84
2023-10-29T13:02:43.570Z,15.86
2023-10-29T13:03:43.551Z,15.88
2023-10-29T13:04:43.518Z,15.90
2023-10-29T13:05:43.557Z,15.90
2023-10-29T13:06:45.094Z,15.90
2023-10-29T13:07:43.543Z,15.90
2023-10-29T13:08:43.614Z,15.92
2023-10-29T13:09:43.586Z,15.94